sensor_id;sensor_type;location;lat;lon;timestamp;pressure;altitude;pressure_sealevel;temperature;humidity
29359;BME280;16347;53.232;6.556;2022-08-07T00:02:11;102716.31;;;21.51;45.94
29359;BME280;16347;53.232;6.556;2022-08-07T00:05:01;102715.28;;;21.52;46.12
29359;BME280;16347;53.232;6.556;2022-08-07T00:07:31;102718.66;;;21.39;46.16
29359;BME280;16347;53.232;6.556;2022-08-07T00:10:07;102709.56;;;21.54;45.84
29359;BME280;16347;53.232;6.556;2022-08-07T00:12:57;102711.16;;;21.48;45.63
29359;BME280;16347;53.232;6.556;2022-08-07T00:15:28;102707.22;;;21.42;45.71
29359;BME280;16347;53.232;6.556;2022-08-07T00:18:13;102714.59;;;21.27;45.66
29359;BME280;16347;53.232;6.556;2022-08-07T00:21:25;102713.69;;;21.35;45.88
29359;BME280;16347;53.232;6.556;2022-08-07T00:24:52;102708.63;;;21.16;45.93
29359;BME280;16347;53.232;6.556;2022-08-07T00:27:21;102707.97;;;21.06;46.26
29359;BME280;16347;53.232;6.556;2022-08-07T00:29:52;102703.38;;;20.98;46.32
29359;BME280;16347;53.232;6.556;2022-08-07T00:32:22;102708.41;;;20.94;46.62
29359;BME280;16347;53.232;6.556;2022-08-07T00:34:54;102698.88;;;20.97;46.15
29359;BME280;16347;53.232;6.556;2022-08-07T00:37:23;102698.34;;;21.02;46.28
29359;BME280;16347;53.232;6.556;2022-08-07T00:40:12;102700.53;;;21.06;46.18
29359;BME280;16347;53.232;6.556;2022-08-07T00:43:00;102703.66;;;21.11;46.32
29359;BME280;16347;53.232;6.556;2022-08-07T00:45:35;102694.63;;;21.17;45.88
29359;BME280;16347;53.232;6.556;2022-08-07T00:48:05;102698.03;;;21.19;45.58
29359;BME280;16347;53.232;6.556;2022-08-07T00:50:39;102697.69;;;21.22;45.69
29359;BME280;16347;53.232;6.556;2022-08-07T00:53:20;102698.03;;;21.19;46.22
29359;BME280;16347;53.232;6.556;2022-08-07T00:55:51;102697.88;;;21.21;45.57
29359;BME280;16347;53.232;6.556;2022-08-07T00:58:32;102705.69;;;21.17;45.94
29359;BME280;16347;53.232;6.556;2022-08-07T01:01:04;102699.28;;;21.17;45.20
29359;BME280;16347;53.232;6.556;2022-08-07T01:03:33;102702.91;;;21.17;45.56
29359;BME280;16347;53.232;6.556;2022-08-07T01:06:28;102699.00;;;21.12;45.81
29359;BME280;16347;53.232;6.556;2022-08-07T01:09:05;102695.47;;;21.18;45.70
29359;BME280;16347;53.232;6.556;2022-08-07T01:11:34;102699.13;;;21.18;45.62
29359;BME280;16347;53.232;6.556;2022-08-07T01:14:26;102693.25;;;21.13;45.47
29359;BME280;16347;53.232;6.556;2022-08-07T01:16:58;102703.94;;;21.16;45.43
29359;BME280;16347;53.232;6.556;2022-08-07T01:19:34;102691.84;;;21.17;45.79
29359;BME280;16347;53.232;6.556;2022-08-07T01:22:13;102701.88;;;21.18;45.24
29359;BME280;16347;53.232;6.556;2022-08-07T01:24:56;102703.66;;;21.11;45.56
29359;BME280;16347;53.232;6.556;2022-08-07T01:27:30;102696.22;;;21.04;45.24
29359;BME280;16347;53.232;6.556;2022-08-07T01:30:04;102694.13;;;21.06;45.33
29359;BME280;16347;53.232;6.556;2022-08-07T01:32:38;102695.78;;;20.92;46.29
29359;BME280;16347;53.232;6.556;2022-08-07T01:35:09;102691.44;;;20.97;45.70
29359;BME280;16347;53.232;6.556;2022-08-07T01:37:45;102692.66;;;20.95;45.71
29359;BME280;16347;53.232;6.556;2022-08-07T01:40:20;102689.22;;;20.93;45.84
29359;BME280;16347;53.232;6.556;2022-08-07T01:42:58;102692.09;;;20.99;46.04
29359;BME280;16347;53.232;6.556;2022-08-07T01:45:43;102685.66;;;21.07;46.04
29359;BME280;16347;53.232;6.556;2022-08-07T01:48:16;102691.56;;;21.04;45.42
29359;BME280;16347;53.232;6.556;2022-08-07T01:50:59;102690.75;;;20.95;45.79
29359;BME280;16347;53.232;6.556;2022-08-07T01:53:53;102689.53;;;20.98;46.26
29359;BME280;16347;53.232;6.556;2022-08-07T01:56:44;102689.06;;;20.86;46.01
29359;BME280;16347;53.232;6.556;2022-08-07T01:59:21;102687.03;;;20.80;45.95
29359;BME280;16347;53.232;6.556;2022-08-07T02:02:02;102682.91;;;20.76;45.72
29359;BME280;16347;53.232;6.556;2022-08-07T02:04:39;102690.19;;;20.69;45.74
29359;BME280;16347;53.232;6.556;2022-08-07T02:07:25;102681.78;;;20.63;45.58
29359;BME280;16347;53.232;6.556;2022-08-07T02:10:24;102679.13;;;20.69;45.53
29359;BME280;16347;53.232;6.556;2022-08-07T02:12:57;102677.28;;;20.62;45.34
29359;BME280;16347;53.232;6.556;2022-08-07T02:15:35;102671.94;;;20.60;45.45
29359;BME280;16347;53.232;6.556;2022-08-07T02:18:05;102668.31;;;20.60;45.70
29359;BME280;16347;53.232;6.556;2022-08-07T02:20:38;102676.44;;;20.61;45.77
29359;BME280;16347;53.232;6.556;2022-08-07T02:23:07;102674.50;;;20.62;45.23
29359;BME280;16347;53.232;6.556;2022-08-07T02:25:41;102671.06;;;20.60;45.92
29359;BME280;16347;53.232;6.556;2022-08-07T02:28:30;102671.44;;;20.57;45.61
29359;BME280;16347;53.232;6.556;2022-08-07T02:31:05;102669.03;;;20.54;46.32
29359;BME280;16347;53.232;6.556;2022-08-07T02:33:53;102664.19;;;20.56;45.97
29359;BME280;16347;53.232;6.556;2022-08-07T02:36:41;102663.66;;;20.60;45.91
29359;BME280;16347;53.232;6.556;2022-08-07T02:39:16;102657.25;;;20.60;45.72
29359;BME280;16347;53.232;6.556;2022-08-07T02:42:07;102660.03;;;20.60;46.28
29359;BME280;16347;53.232;6.556;2022-08-07T02:44:44;102660.75;;;20.54;46.28
29359;BME280;16347;53.232;6.556;2022-08-07T02:47:17;102661.28;;;20.49;46.52
29359;BME280;16347;53.232;6.556;2022-08-07T02:49:53;102656.97;;;20.46;46.71
29359;BME280;16347;53.232;6.556;2022-08-07T02:52:33;102661.47;;;20.48;46.36
29359;BME280;16347;53.232;6.556;2022-08-07T02:55:07;102662.66;;;20.45;46.69
29359;BME280;16347;53.232;6.556;2022-08-07T02:57:58;102657.16;;;20.45;46.93
29359;BME280;16347;53.232;6.556;2022-08-07T03:00:32;102658.88;;;20.46;46.98
29359;BME280;16347;53.232;6.556;2022-08-07T03:03:04;102655.09;;;20.39;46.49
29359;BME280;16347;53.232;6.556;2022-08-07T03:05:42;102652.91;;;20.34;47.08
29359;BME280;16347;53.232;6.556;2022-08-07T03:08:13;102649.28;;;20.34;46.82
29359;BME280;16347;53.232;6.556;2022-08-07T03:10:46;102657.91;;;20.31;47.01
29359;BME280;16347;53.232;6.556;2022-08-07T03:13:25;102659.81;;;20.30;46.73
29359;BME280;16347;53.232;6.556;2022-08-07T03:16:11;102646.00;;;20.30;46.51
29359;BME280;16347;53.232;6.556;2022-08-07T03:18:42;102653.78;;;20.27;46.33
29359;BME280;16347;53.232;6.556;2022-08-07T03:21:16;102655.53;;;20.28;46.42
29359;BME280;16347;53.232;6.556;2022-08-07T03:23:50;102657.75;;;20.24;46.32
29359;BME280;16347;53.232;6.556;2022-08-07T03:26:47;102656.38;;;20.20;46.54
29359;BME280;16347;53.232;6.556;2022-08-07T03:29:38;102654.50;;;20.13;46.44
29359;BME280;16347;53.232;6.556;2022-08-07T03:32:22;102658.81;;;20.07;46.46
29359;BME280;16347;53.232;6.556;2022-08-07T03:35:02;102661.22;;;20.10;46.39
29359;BME280;16347;53.232;6.556;2022-08-07T03:37:52;102652.94;;;20.10;46.64
29359;BME280;16347;53.232;6.556;2022-08-07T03:40:29;102653.47;;;20.14;46.74
29359;BME280;16347;53.232;6.556;2022-08-07T03:43:07;102655.31;;;20.21;46.28
29359;BME280;16347;53.232;6.556;2022-08-07T03:45:47;102650.47;;;20.23;46.10
29359;BME280;16347;53.232;6.556;2022-08-07T03:48:22;102644.75;;;20.25;45.92
29359;BME280;16347;53.232;6.556;2022-08-07T03:50:58;102642.19;;;20.23;46.03
29359;BME280;16347;53.232;6.556;2022-08-07T03:53:39;102636.19;;;20.28;45.78
29359;BME280;16347;53.232;6.556;2022-08-07T03:56:30;102638.38;;;20.32;45.89
29359;BME280;16347;53.232;6.556;2022-08-07T03:59:04;102644.75;;;20.25;45.87
29359;BME280;16347;53.232;6.556;2022-08-07T04:01:49;102650.66;;;20.22;46.10
29359;BME280;16347;53.232;6.556;2022-08-07T04:04:23;102655.31;;;20.21;45.72
29359;BME280;16347;53.232;6.556;2022-08-07T04:07:04;102643.94;;;20.24;46.20
29359;BME280;16347;53.232;6.556;2022-08-07T04:09:47;102641.16;;;20.24;45.73
29359;BME280;16347;53.232;6.556;2022-08-07T04:12:23;102639.22;;;20.25;45.37
29359;BME280;16347;53.232;6.556;2022-08-07T04:14:59;102642.72;;;20.27;45.60
29359;BME280;16347;53.232;6.556;2022-08-07T04:17:41;102657.41;;;20.27;45.02
29359;BME280;16347;53.232;6.556;2022-08-07T04:20:31;102653.25;;;20.23;45.10
29359;BME280;16347;53.232;6.556;2022-08-07T04:23:02;102656.53;;;20.19;46.04
29359;BME280;16347;53.232;6.556;2022-08-07T04:25:49;102655.50;;;20.20;45.74
29359;BME280;16347;53.232;6.556;2022-08-07T04:28:21;102649.44;;;20.24;45.22
29359;BME280;16347;53.232;6.556;2022-08-07T04:30:54;102642.72;;;20.27;45.26
29359;BME280;16347;53.232;6.556;2022-08-07T04:33:36;102643.72;;;20.26;45.55
29359;BME280;16347;53.232;6.556;2022-08-07T04:36:07;102640.13;;;20.33;45.59
29359;BME280;16347;53.232;6.556;2022-08-07T04:38:38;102637.53;;;20.32;44.78
29359;BME280;16347;53.232;6.556;2022-08-07T04:41:10;102636.41;;;20.49;44.79
29359;BME280;16347;53.232;6.556;2022-08-07T04:43:49;102649.44;;;20.24;45.46
29359;BME280;16347;53.232;6.556;2022-08-07T04:46:50;102650.34;;;20.17;45.32
29359;BME280;16347;53.232;6.556;2022-08-07T04:49:40;102645.69;;;20.09;45.29
29359;BME280;16347;53.232;6.556;2022-08-07T04:52:37;102648.66;;;20.00;45.47
29359;BME280;16347;53.232;6.556;2022-08-07T04:55:24;102649.00;;;19.96;46.08
29359;BME280;16347;53.232;6.556;2022-08-07T04:58:19;102650.03;;;19.95;45.59
29359;BME280;16347;53.232;6.556;2022-08-07T05:01:15;102655.41;;;19.97;45.95
29359;BME280;16347;53.232;6.556;2022-08-07T05:03:49;102657.47;;;19.95;46.71
29359;BME280;16347;53.232;6.556;2022-08-07T05:06:46;102653.34;;;19.91;46.14
29359;BME280;16347;53.232;6.556;2022-08-07T05:09:25;102658.53;;;19.94;46.37
29359;BME280;16347;53.232;6.556;2022-08-07T05:12:16;102656.59;;;19.94;46.14
29359;BME280;16347;53.232;6.556;2022-08-07T05:14:59;102660.72;;;19.98;46.08
29359;BME280;16347;53.232;6.556;2022-08-07T05:17:55;102662.13;;;19.94;46.39
29359;BME280;16347;53.232;6.556;2022-08-07T05:20:32;102658.84;;;19.99;46.54
29359;BME280;16347;53.232;6.556;2022-08-07T05:23:08;102654.53;;;19.96;45.95
29359;BME280;16347;53.232;6.556;2022-08-07T05:25:45;102656.44;;;19.96;45.79
29359;BME280;16347;53.232;6.556;2022-08-07T05:28:36;102660.47;;;19.77;46.12
29359;BME280;16347;53.232;6.556;2022-08-07T05:31:11;102665.28;;;19.51;46.78
29359;BME280;16347;53.232;6.556;2022-08-07T05:33:45;102660.97;;;19.49;47.22
29359;BME280;16347;53.232;6.556;2022-08-07T05:36:36;102664.75;;;19.48;47.41
29359;BME280;16347;53.232;6.556;2022-08-07T05:39:18;102659.59;;;19.53;47.38
29359;BME280;16347;53.232;6.556;2022-08-07T05:42:10;102660.25;;;19.79;46.97
29359;BME280;16347;53.232;6.556;2022-08-07T05:45:01;102660.66;;;19.60;46.77
29359;BME280;16347;53.232;6.556;2022-08-07T05:47:53;102659.78;;;19.59;46.85
29359;BME280;16347;53.232;6.556;2022-08-07T05:50:40;102664.63;;;19.57;47.06
29359;BME280;16347;53.232;6.556;2022-08-07T05:53:13;102660.63;;;19.52;47.43
29359;BME280;16347;53.232;6.556;2022-08-07T05:56:11;102665.66;;;19.56;47.29
29359;BME280;16347;53.232;6.556;2022-08-07T05:58:49;102666.31;;;19.66;47.54
29359;BME280;16347;53.232;6.556;2022-08-07T06:01:25;102670.81;;;19.59;47.97
29359;BME280;16347;53.232;6.556;2022-08-07T06:04:06;102674.25;;;19.69;47.58
29359;BME280;16347;53.232;6.556;2022-08-07T06:06:40;102681.31;;;19.72;46.97
29359;BME280;16347;53.232;6.556;2022-08-07T06:09:16;102675.13;;;19.70;47.16
29359;BME280;16347;53.232;6.556;2022-08-07T06:12:10;102684.94;;;19.64;47.22
29359;BME280;16347;53.232;6.556;2022-08-07T06:14:42;102691.16;;;19.58;46.99
29359;BME280;16347;53.232;6.556;2022-08-07T06:17:18;102689.59;;;19.48;47.65
29359;BME280;16347;53.232;6.556;2022-08-07T06:20:02;102685.84;;;19.40;47.84
29359;BME280;16347;53.232;6.556;2022-08-07T06:22:53;102691.00;;;19.52;48.24
29359;BME280;16347;53.232;6.556;2022-08-07T06:25:45;102691.34;;;19.57;47.82
29359;BME280;16347;53.232;6.556;2022-08-07T06:28:24;102692.34;;;19.72;48.00
29359;BME280;16347;53.232;6.556;2022-08-07T06:30:57;102691.81;;;19.84;47.73
29359;BME280;16347;53.232;6.556;2022-08-07T06:33:28;102691.81;;;20.01;48.03
29359;BME280;16347;53.232;6.556;2022-08-07T06:36:00;102696.94;;;20.12;47.66
29359;BME280;16347;53.232;6.556;2022-08-07T06:39:00;102699.53;;;20.05;47.29
29359;BME280;16347;53.232;6.556;2022-08-07T06:42:18;102693.53;;;19.93;47.58
29359;BME280;16347;53.232;6.556;2022-08-07T06:45:23;102692.34;;;19.72;47.89
29359;BME280;16347;53.232;6.556;2022-08-07T06:47:56;102687.91;;;19.71;47.97
29359;BME280;16347;53.232;6.556;2022-08-07T06:50:35;102684.06;;;19.72;48.58
29359;BME280;16347;53.232;6.556;2022-08-07T06:53:15;102684.59;;;19.83;48.23
29359;BME280;16347;53.232;6.556;2022-08-07T06:56:09;102685.25;;;19.93;48.52
29359;BME280;16347;53.232;6.556;2022-08-07T06:58:46;102684.88;;;20.05;48.46
29359;BME280;16347;53.232;6.556;2022-08-07T07:01:45;102678.16;;;19.99;48.46
29359;BME280;16347;53.232;6.556;2022-08-07T07:04:18;102679.59;;;19.79;48.17
29359;BME280;16347;53.232;6.556;2022-08-07T07:07:01;102680.97;;;19.75;48.83
29359;BME280;16347;53.232;6.556;2022-08-07T07:09:57;102680.59;;;19.78;49.52
29359;BME280;16347;53.232;6.556;2022-08-07T07:12:37;102687.19;;;19.77;48.74
29359;BME280;16347;53.232;6.556;2022-08-07T07:15:19;102677.66;;;19.95;48.72
29359;BME280;16347;53.232;6.556;2022-08-07T07:17:57;102685.06;;;19.95;48.58
29359;BME280;16347;53.232;6.556;2022-08-07T07:20:35;102686.84;;;19.72;49.20
29359;BME280;16347;53.232;6.556;2022-08-07T07:23:08;102682.19;;;19.80;49.00
29359;BME280;16347;53.232;6.556;2022-08-07T07:26:04;102675.75;;;19.88;49.74
29359;BME280;16347;53.232;6.556;2022-08-07T07:28:59;102676.06;;;20.17;48.76
29359;BME280;16347;53.232;6.556;2022-08-07T07:31:54;102673.66;;;19.98;48.92
29359;BME280;16347;53.232;6.556;2022-08-07T07:34:32;102681.63;;;20.01;49.01
29359;BME280;16347;53.232;6.556;2022-08-07T07:37:06;102674.41;;;19.84;49.40
29359;BME280;16347;53.232;6.556;2022-08-07T07:39:59;102685.06;;;19.95;48.94
29359;BME280;16347;53.232;6.556;2022-08-07T07:42:45;102669.47;;;20.26;48.91
29359;BME280;16347;53.232;6.556;2022-08-07T07:45:24;102669.44;;;20.42;48.19
29359;BME280;16347;53.232;6.556;2022-08-07T07:48:15;102667.28;;;20.61;47.39
29359;BME280;16347;53.232;6.556;2022-08-07T07:51:04;102665.84;;;20.34;47.87
29359;BME280;16347;53.232;6.556;2022-08-07T07:53:38;102661.50;;;20.31;47.26
29359;BME280;16347;53.232;6.556;2022-08-07T07:56:19;102664.97;;;20.33;47.34
29359;BME280;16347;53.232;6.556;2022-08-07T07:58:57;102662.91;;;20.19;47.29
29359;BME280;16347;53.232;6.556;2022-08-07T08:01:30;102659.97;;;20.37;46.74
29359;BME280;16347;53.232;6.556;2022-08-07T08:04:20;102652.91;;;20.34;46.74
29359;BME280;16347;53.232;6.556;2022-08-07T08:06:55;102654.22;;;20.46;46.56
29359;BME280;16347;53.232;6.556;2022-08-07T08:09:29;102660.97;;;20.44;47.07
29359;BME280;16347;53.232;6.556;2022-08-07T08:12:18;102655.53;;;20.59;48.16
29359;BME280;16347;53.232;6.556;2022-08-07T08:15:07;102652.41;;;20.62;46.48
29359;BME280;16347;53.232;6.556;2022-08-07T08:17:36;102655.88;;;20.56;47.12
29359;BME280;16347;53.232;6.556;2022-08-07T08:20:25;102647.06;;;20.60;46.80
29359;BME280;16347;53.232;6.556;2022-08-07T08:22:59;102653.41;;;20.69;46.18
29359;BME280;16347;53.232;6.556;2022-08-07T08:25:48;102654.22;;;20.77;46.99
29359;BME280;16347;53.232;6.556;2022-08-07T08:28:53;102654.31;;;20.61;46.73
29359;BME280;16347;53.232;6.556;2022-08-07T08:31:26;102652.84;;;20.42;46.67
29359;BME280;16347;53.232;6.556;2022-08-07T08:34:16;102650.41;;;20.48;46.82
29359;BME280;16347;53.232;6.556;2022-08-07T08:36:56;102646.44;;;20.42;47.26
29359;BME280;16347;53.232;6.556;2022-08-07T08:39:27;102638.72;;;20.37;47.25
29359;BME280;16347;53.232;6.556;2022-08-07T08:42:21;102643.38;;;20.37;47.55
29359;BME280;16347;53.232;6.556;2022-08-07T08:44:59;102647.81;;;20.46;48.19
29359;BME280;16347;53.232;6.556;2022-08-07T08:47:38;102644.91;;;20.39;47.36
29359;BME280;16347;53.232;6.556;2022-08-07T08:50:21;102647.66;;;20.48;46.81
29359;BME280;16347;53.232;6.556;2022-08-07T08:53:12;102642.63;;;20.51;46.34
29359;BME280;16347;53.232;6.556;2022-08-07T08:55:49;102648.53;;;20.48;47.00
29359;BME280;16347;53.232;6.556;2022-08-07T08:58:34;102644.66;;;20.57;46.65
29359;BME280;16347;53.232;6.556;2022-08-07T09:01:12;102637.03;;;20.59;47.30
29359;BME280;16347;53.232;6.556;2022-08-07T09:03:54;102641.97;;;20.72;47.36
29359;BME280;16347;53.232;6.556;2022-08-07T09:06:37;102633.41;;;20.89;46.34
29359;BME280;16347;53.232;6.556;2022-08-07T09:09:30;102632.78;;;21.10;45.27
29359;BME280;16347;53.232;6.556;2022-08-07T09:12:11;102638.41;;;21.17;46.71
29359;BME280;16347;53.232;6.556;2022-08-07T09:15:18;102642.34;;;21.22;45.71
29359;BME280;16347;53.232;6.556;2022-08-07T09:21:32;102637.59;;;21.54;44.73
29359;BME280;16347;53.232;6.556;2022-08-07T09:24:36;102636.53;;;21.55;44.11
29359;BME280;16347;53.232;6.556;2022-08-07T09:27:33;102643.31;;;21.52;44.78
29359;BME280;16347;53.232;6.556;2022-08-07T09:30:32;102641.97;;;21.48;44.47
29359;BME280;16347;53.232;6.556;2022-08-07T09:33:15;102631.88;;;21.32;44.43
29359;BME280;16347;53.232;6.556;2022-08-07T09:36:23;102638.28;;;21.33;44.25
29359;BME280;16347;53.232;6.556;2022-08-07T09:39:21;102640.38;;;21.31;43.62
29359;BME280;16347;53.232;6.556;2022-08-07T09:42:26;102630.03;;;21.47;43.68
29359;BME280;16347;53.232;6.556;2022-08-07T09:45:08;102633.78;;;21.55;42.61
29359;BME280;16347;53.232;6.556;2022-08-07T09:48:10;102626.72;;;21.67;42.84
29359;BME280;16347;53.232;6.556;2022-08-07T09:50:56;102617.59;;;21.81;43.36
29359;BME280;16347;53.232;6.556;2022-08-07T09:53:34;102609.94;;;21.83;42.34
29359;BME280;16347;53.232;6.556;2022-08-07T09:56:37;102616.53;;;21.82;42.44
29359;BME280;16347;53.232;6.556;2022-08-07T09:59:37;102618.84;;;21.93;42.88
29359;BME280;16347;53.232;6.556;2022-08-07T10:12:52;102604.28;;;21.76;41.19
29359;BME280;16347;53.232;6.556;2022-08-07T10:15:41;102601.63;;;21.83;41.80
29359;BME280;16347;53.232;6.556;2022-08-07T10:18:35;102605.94;;;21.71;39.26
29359;BME280;16347;53.232;6.556;2022-08-07T10:21:16;102595.91;;;21.84;39.47
29359;BME280;16347;53.232;6.556;2022-08-07T10:24:23;102594.22;;;21.98;38.74
29359;BME280;16347;53.232;6.556;2022-08-07T10:27:15;102598.59;;;22.07;39.46
29359;BME280;16347;53.232;6.556;2022-08-07T10:30:16;102586.97;;;22.12;38.65
29359;BME280;16347;53.232;6.556;2022-08-07T10:33:16;102586.09;;;22.26;37.99
29359;BME280;16347;53.232;6.556;2022-08-07T10:36:22;102580.34;;;22.27;39.64
29359;BME280;16347;53.232;6.556;2022-08-07T10:38:59;102578.03;;;22.31;39.29
29359;BME280;16347;53.232;6.556;2022-08-07T10:41:37;102573.25;;;22.39;38.20
29359;BME280;16347;53.232;6.556;2022-08-07T10:44:30;102569.25;;;22.27;37.57
29359;BME280;16347;53.232;6.556;2022-08-07T10:47:17;102569.09;;;22.14;38.71
29359;BME280;16347;53.232;6.556;2022-08-07T10:50:12;102555.88;;;22.16;39.59
29359;BME280;16347;53.232;6.556;2022-08-07T10:52:55;102561.31;;;22.39;39.70
29359;BME280;16347;53.232;6.556;2022-08-07T10:55:43;102552.84;;;22.26;40.19
29359;BME280;16347;53.232;6.556;2022-08-07T10:58:25;102562.19;;;22.25;39.89
29359;BME280;16347;53.232;6.556;2022-08-07T11:01:20;102558.63;;;22.31;39.78
29359;BME280;16347;53.232;6.556;2022-08-07T11:04:21;102556.19;;;22.07;40.25
29359;BME280;16347;53.232;6.556;2022-08-07T11:07:04;102552.75;;;22.19;39.84
29359;BME280;16347;53.232;6.556;2022-08-07T11:09:54;102554.75;;;22.25;39.94
29359;BME280;16347;53.232;6.556;2022-08-07T11:12:42;102539.13;;;22.39;39.45
29359;BME280;16347;53.232;6.556;2022-08-07T11:15:31;102543.88;;;22.45;40.69
29359;BME280;16347;53.232;6.556;2022-08-07T11:18:09;102541.44;;;22.35;38.98
29359;BME280;16347;53.232;6.556;2022-08-07T11:20:50;102536.47;;;22.16;39.18
29359;BME280;16347;53.232;6.556;2022-08-07T11:23:26;102531.69;;;22.39;37.89
29359;BME280;16347;53.232;6.556;2022-08-07T11:26:11;102527.59;;;22.57;37.71
29359;BME280;16347;53.232;6.556;2022-08-07T11:29:02;102520.59;;;22.61;38.00
29359;BME280;16347;53.232;6.556;2022-08-07T11:32:39;102520.59;;;22.61;39.34
29359;BME280;16347;53.232;6.556;2022-08-07T11:35:18;102520.81;;;22.59;38.90
29359;BME280;16347;53.232;6.556;2022-08-07T11:38:07;102523.81;;;22.79;39.71
29359;BME280;16347;53.232;6.556;2022-08-07T11:40:48;102513.88;;;22.91;38.86
29359;BME280;16347;53.232;6.556;2022-08-07T11:43:24;102511.69;;;22.65;38.90
29359;BME280;16347;53.232;6.556;2022-08-07T11:46:17;102515.47;;;22.43;39.95
29359;BME280;16347;53.232;6.556;2022-08-07T11:49:31;102519.06;;;22.73;39.84
29359;BME280;16347;53.232;6.556;2022-08-07T11:52:41;102507.91;;;22.52;40.20
29359;BME280;16347;53.232;6.556;2022-08-07T11:55:27;102509.97;;;22.64;39.24
29359;BME280;16347;53.232;6.556;2022-08-07T11:58:37;102510.47;;;22.89;39.02
29359;BME280;16347;53.232;6.556;2022-08-07T12:01:26;102503.88;;;23.18;38.42
29359;BME280;16347;53.232;6.556;2022-08-07T12:04:44;102501.19;;;23.31;38.68
29359;BME280;16347;53.232;6.556;2022-08-07T12:07:22;102500.13;;;23.04;38.02
29359;BME280;16347;53.232;6.556;2022-08-07T12:10:02;102495.44;;;23.32;38.45
29359;BME280;16347;53.232;6.556;2022-08-07T12:12:42;102512.22;;;23.45;39.04
29359;BME280;16347;53.232;6.556;2022-08-07T12:15:20;102500.34;;;23.58;38.68
29359;BME280;16347;53.232;6.556;2022-08-07T12:18:18;102496.56;;;23.72;37.52
29359;BME280;16347;53.232;6.556;2022-08-07T12:21:11;102496.63;;;23.79;37.27
29359;BME280;16347;53.232;6.556;2022-08-07T12:24:09;102502.84;;;23.87;37.40
29359;BME280;16347;53.232;6.556;2022-08-07T12:27:11;102511.09;;;23.40;37.78
29359;BME280;16347;53.232;6.556;2022-08-07T12:29:50;102515.66;;;23.47;37.72
29359;BME280;16347;53.232;6.556;2022-08-07T12:32:29;102511.84;;;23.55;38.69
29359;BME280;16347;53.232;6.556;2022-08-07T12:35:02;102505.28;;;23.63;39.44
29359;BME280;16347;53.232;6.556;2022-08-07T12:37:34;102510.53;;;23.51;40.79
29359;BME280;16347;53.232;6.556;2022-08-07T12:40:28;102509.38;;;23.39;41.34
29359;BME280;16347;53.232;6.556;2022-08-07T12:43:21;102522.38;;;23.38;41.97
29359;BME280;16347;53.232;6.556;2022-08-07T12:46:21;102511.47;;;23.37;41.08
29359;BME280;16347;53.232;6.556;2022-08-07T12:49:07;102509.97;;;23.34;41.62
29359;BME280;16347;53.232;6.556;2022-08-07T12:52:03;102500.50;;;23.22;41.92
29359;BME280;16347;53.232;6.556;2022-08-07T12:54:57;102500.22;;;23.17;41.14
29359;BME280;16347;53.232;6.556;2022-08-07T12:57:37;102498.81;;;23.28;41.75
29359;BME280;16347;53.232;6.556;2022-08-07T13:00:39;102511.00;;;23.27;41.91
29359;BME280;16347;53.232;6.556;2022-08-07T13:09:49;102511.09;;;23.40;42.12
29359;BME280;16347;53.232;6.556;2022-08-07T13:12:55;102499.09;;;23.33;41.75
29359;BME280;16347;53.232;6.556;2022-08-07T13:15:35;102494.44;;;23.40;41.46
29359;BME280;16347;53.232;6.556;2022-08-07T13:18:20;102497.44;;;23.17;40.54
29359;BME280;16347;53.232;6.556;2022-08-07T13:21:00;102496.44;;;23.25;41.10
29359;BME280;16347;53.232;6.556;2022-08-07T13:23:42;102487.16;;;23.67;40.14
29359;BME280;16347;53.232;6.556;2022-08-07T13:26:38;102491.47;;;23.76;38.80
29359;BME280;16347;53.232;6.556;2022-08-07T13:29:18;102475.88;;;23.81;38.95
29359;BME280;16347;53.232;6.556;2022-08-07T13:31:54;102484.44;;;23.80;38.68
29359;BME280;16347;53.232;6.556;2022-08-07T13:35:06;102479.94;;;23.79;38.78
29359;BME280;16347;53.232;6.556;2022-08-07T13:38:12;102481.66;;;23.80;39.87
29359;BME280;16347;53.232;6.556;2022-08-07T13:40:59;102476.09;;;23.73;39.36
29359;BME280;16347;53.232;6.556;2022-08-07T13:43:30;102479.88;;;23.66;39.02
29359;BME280;16347;53.232;6.556;2022-08-07T13:46:02;102477.09;;;23.66;38.72
29359;BME280;16347;53.232;6.556;2022-08-07T13:48:57;102476.69;;;23.69;38.46
29359;BME280;16347;53.232;6.556;2022-08-07T13:51:28;102475.81;;;23.68;37.69
29359;BME280;16347;53.232;6.556;2022-08-07T13:54:20;102465.78;;;23.67;36.65
29359;BME280;16347;53.232;6.556;2022-08-07T13:56:59;102461.31;;;23.66;37.66
29359;BME280;16347;53.232;6.556;2022-08-07T13:59:35;102467.03;;;23.65;37.72
29359;BME280;16347;53.232;6.556;2022-08-07T14:02:08;102457.06;;;23.70;38.65
29359;BME280;16347;53.232;6.556;2022-08-07T14:04:50;102459.59;;;23.72;38.56
29359;BME280;16347;53.232;6.556;2022-08-07T14:07:25;102457.28;;;23.75;38.00
29359;BME280;16347;53.232;6.556;2022-08-07T14:10:01;102453.41;;;23.70;38.34
29359;BME280;16347;53.232;6.556;2022-08-07T14:12:49;102456.22;;;23.76;38.04
29359;BME280;16347;53.232;6.556;2022-08-07T14:15:34;102452.41;;;23.84;37.91
29359;BME280;16347;53.232;6.556;2022-08-07T14:18:13;102444.72;;;23.86;38.40
29359;BME280;16347;53.232;6.556;2022-08-07T14:21:03;102455.88;;;23.99;38.07
29359;BME280;16347;53.232;6.556;2022-08-07T14:24:02;102454.81;;;24.00;37.43
29359;BME280;16347;53.232;6.556;2022-08-07T14:26:51;102455.47;;;24.02;37.87
29359;BME280;16347;53.232;6.556;2022-08-07T14:29:25;102455.47;;;24.02;37.78
29359;BME280;16347;53.232;6.556;2022-08-07T14:32:19;102456.75;;;23.99;37.88
29359;BME280;16347;53.232;6.556;2022-08-07T14:35:15;102455.88;;;23.99;37.51
29359;BME280;16347;53.232;6.556;2022-08-07T14:38:12;102453.75;;;24.08;37.50
29359;BME280;16347;53.232;6.556;2022-08-07T14:40:59;102453.75;;;24.08;38.34